Estación Meteorológica Peña el Pijo (Robertgarden) [ 03/26/19 15:05:10 CET ]

Fecha Hora Presion(HPa) Temp (°C) Humedad % Rocio (°C) Viento ( m/s) Direccion Lluvia 1Hora(mm) Lluvia 24H(mm) LLuvia Total(mm)
2019-Jan-03 01:01:35 1015.200 -1.8 63 -7.9         161.09
2019-Jan-03 02:03:08 1015.100 -2.4 65 -8.1         161.09
2019-Jan-03 03:01:45 1015.100 -2.6 67 -7.9         161.09
2019-Jan-03 04:01:41 1014.800 -2.7 69 -7.6         161.09
2019-Jan-03 05:01:55 1014.300 -3.0 70 -7.7         161.09
2019-Jan-03 06:01:46 1014.300 -4.1 72 -8.4         161.09
2019-Jan-03 07:01:50 1014.600 -4.7 74 -8.6         161.09
2019-Jan-03 08:01:37 1014.900 -4.4 75 -8.2         161.09
2019-Jan-03 09:01:44 1015.500 -4.7 76 -8.3         161.09
2019-Jan-03 10:01:44 1016.300 0.3 79 -2.9         161.09
2019-Jan-03 11:01:44 1016.500 6.4 55 -2.0         161.09
2019-Jan-03 12:01:39 1015.600 9.5 46 -1.6         161.09
2019-Jan-03 13:01:36 1014.900 10.5 44 -1.3         161.09
2019-Jan-03 14:01:55 1014.300 11.9 42 -0.7         161.09
2019-Jan-03 15:01:13 1014.100 11.9 44 -0.1         161.09
2019-Jan-03 16:01:49 1014.400 11.3 47 0.3         161.09
2019-Jan-03 17:02:00 1014.600 8.9 54 0.0         161.09
2019-Jan-03 18:01:52 1015.100 6.4 61 -0.6         161.09
2019-Jan-03 19:01:45 1015.600 3.1 66 -2.6         161.09
2019-Jan-03 20:01:43 1016.000 1.6 71 -3.1         161.09
2019-Jan-03 21:01:50 1016.200 0.1 74 -4.0         161.09
2019-Jan-03 22:01:44 1016.000 0.1 77 -3.4         161.09
2019-Jan-03 23:01:48 1016.100 -1.4 78 -4.8         161.09

Temperatura Máxima:11°    Temperatura Mínima:-4°
Presión Máxima:1016.500 Hpa    Presión Mínima:1014.100 Hpa


Volver